Latest Weather Observations for Devonport Airport

IDT60801

Issued at 10:02 pm EST Sunday 28 August 2016 (issued every 30 minutes, with the page automatically refreshed every 10 minutes)

About weather observations | Map of weather stations | Latest weather observations for TAS | Other Formats
Station Details ID: 091126 Name: DEVONPORT AIRPORT Lat: -41.17 Lon: 146.43 Height: 8.0 m
Data from the previous 72 hours. | See also: Recent months at Devonport Airport
Date/Time
EST
Temp
°C
App
Temp
°C
Dew
Point
°C
Rel
Hum
%
Delta-T
°C
Wind Press
QNH
hPa
Press
MSL
hPa
Rain since
9am
mm
Dir  Spd
km/h
Gust
km/h
Spd
kts
Gust
kts
28/10:00pm 5.0 1.4 0.8 74 1.6 WSW 9 15 5 8 1021.1 1021.1 0.0
28/09:30pm 5.9 2.8 1.2 72 1.9 WSW 7 9 4 5 1021.0 1021.0 0.0
28/09:00pm 5.9 3.0 1.6 74 1.7 SW 6 13 3 7 1020.7 1020.7 0.0
28/08:30pm 5.0 1.4 0.8 74 1.6 WSW 9 11 5 6 1020.4 1020.4 0.0
28/08:00pm 5.5 2.3 0.9 72 1.8 WSW 7 9 4 5 1019.9 1019.9 0.0
28/07:30pm 8.4 4.6 1.8 63 2.7 SW 11 17 6 9 1019.7 1019.7 0.0
28/07:00pm 8.5 4.7 1.9 63 2.7 SW 11 15 6 8 1019.6 1019.6 0.0
28/06:30pm 7.7 3.7 3.0 72 2.0 WSW 13 15 7 8 1019.3 1019.3 0.0
28/06:00pm 8.2 4.5 2.4 67 2.4 WSW 11 13 6 7 1019.0 1019.0 0.0
28/05:30pm 10.0 4.8 2.4 59 3.2 W 19 24 10 13 1018.5 1018.5 0.0
28/05:00pm 11.0 5.1 4.0 62 3.1 WNW 24 32 13 17 1018.2 1018.2 0.0
28/04:30pm 11.2 5.4 4.4 63 3.1 WNW 24 32 13 17 1018.1 1018.1 0.0
28/04:00pm 11.7 5.7 3.2 56 3.7 NW 24 30 13 16 1018.0 1018.0 0.0
28/03:30pm 11.7 6.6 3.2 56 3.7 NW 19 24 10 13 1017.6 1017.7 0.0
28/03:00pm 11.0 4.9 2.8 57 3.5 WNW 24 30 13 16 1017.8 1017.9 0.0
28/02:30pm 11.4 7.3 2.2 53 3.9 WNW 13 20 7 11 1017.8 1017.9 0.0
28/02:00pm 12.0 7.4 1.6 49 4.4 W 15 22 8 12 1017.8 1017.9 0.0
28/01:30pm 11.4 7.2 1.4 50 4.2 WNW 13 19 7 10 1017.6 1017.7 0.0
28/01:00pm 11.6 6.8 2.4 53 4.0 WSW 17 26 9 14 1017.7 1017.8 0.0
28/12:30pm 11.3 7.3 2.9 56 3.7 WSW 13 20 7 11 1018.1 1018.1 0.0
28/12:00pm 10.8 6.3 -0.6 45 4.5 WSW 13 24 7 13 1018.4 1018.4 0.0
28/11:30am 10.6 6.0 1.4 53 3.8 SW 15 22 8 12 1018.3 1018.3 0.0
28/11:00am 10.8 5.5 2.1 55 3.7 WSW 19 30 10 16 1018.5 1018.5 0.0
28/10:30am 10.0 4.3 0.6 52 3.8 WSW 20 30 11 16 1018.5 1018.5 0.0
28/10:00am 10.1 4.1 1.0 53 3.7 WSW 22 33 12 18 1018.4 1018.4 0.0
28/09:30am 9.6 4.3 3.1 64 2.8 WSW 20 26 11 14 1018.1 1018.1 0.0
28/09:00am 8.7 3.0 2.9 67 2.5 WSW 22 28 12 15 1017.6 1017.7 12.0
28/08:30am 8.0 2.0 3.3 72 2.0 W 24 30 13 16 1017.2 1017.3 12.0
28/08:00am 7.1 2.7 2.6 73 1.9 WSW 15 19 8 10 1016.8 1016.9 12.0
28/07:30am 5.9 2.2 2.5 79 1.4 WSW 11 15 6 8 1016.2 1016.3 12.0
28/07:00am 4.8 0.6 1.7 80 1.2 W 13 17 7 9 1015.5 1015.6 12.0
28/06:30am 5.6 1.4 1.9 77 1.5 WSW 13 17 7 9 1014.7 1014.8 12.0
28/06:00am 6.3 0.5 2.2 75 1.7 WSW 22 26 12 14 1014.0 1014.1 12.0
28/05:30am 6.0 0.8 3.5 84 1.0 W 20 24 11 13 1013.3 1013.4 12.0
28/05:00am 6.4 1.3 3.9 84 1.1 WSW 20 24 11 13 1012.8 1012.9 12.0
28/04:30am 6.7 1.7 3.7 81 1.3 WSW 19 20 10 11 1012.2 1012.3 12.0
28/04:00am 8.0 2.6 4.6 79 1.5 W 22 30 12 16 1011.3 1011.4 12.0
28/03:30am 8.4 3.2 5.5 82 1.3 W 22 28 12 15 1010.5 1010.6 12.0
28/03:00am 10.0 4.6 7.9 87 1.0 WNW 26 33 14 18 1010.0 1010.1 12.0
28/02:30am 10.6 4.1 8.9 89 0.8 WNW 33 43 18 23 1009.8 1009.9 12.0
28/02:00am 11.2 4.0 9.1 87 1.0 WNW 37 50 20 27 1009.9 1010.0 12.0
28/01:30am 11.2 3.3 9.3 88 1.0 WNW 41 52 22 28 1009.7 1009.8 12.0
28/01:00am 11.1 3.7 9.7 91 0.7 WNW 39 50 21 27 1009.6 1009.7 12.0
28/12:56am 11.1 3.3 9.9 92 0.6 WNW 41 52 22 28 1009.5 1009.6 12.0
28/12:37am 11.2 2.5 10.1 93 0.6 WNW 46 57 25 31 1009.8 1009.9 11.8
28/12:30am 11.3 2.3 10.2 93 0.6 WNW 48 61 26 33 1009.9 1010.0 11.4
28/12:27am 11.3 2.7 10.2 93 0.6 WNW 46 61 25 33 1009.8 1009.9 11.2
28/12:06am 11.8 0.9 9.5 86 1.2 NW 57 78 31 42 1009.3 1009.4 8.4
28/12:00am 11.9 0.9 9.3 84 1.3 NW 57 78 31 42 1009.0 1009.1 8.2
 
Date/Time
EST
Temp
°C
App
Temp
°C
Dew
Point
°C
Rel
Hum
%
Delta-T
°C
Wind Press
QNH
hPa
Press
MSL
hPa
Rain since
9am
mm
Dir  Spd
km/h
Gust
km/h
Spd
kts
Gust
kts
27/11:51pm 11.9 1.9 9.3 84 1.3 NW 52 70 28 38 1009.2 1009.3 8.2
27/11:30pm 11.6 2.3 9.3 86 1.2 NW 48 61 26 33 1009.5 1009.6 7.8
27/11:19pm 11.5 3.1 9.6 88 1.0 NW 44 63 24 34 1009.8 1009.9 7.8
27/11:00pm 11.6 0.8 9.2 85 1.2 NW 56 69 30 37 1010.0 1010.1 7.6
27/10:39pm 11.6 2.7 9.3 86 1.2 NW 46 65 25 35 1010.7 1010.8 7.6
27/10:37pm 11.7 3.2 9.3 85 1.2 NW 44 65 24 35 1010.6 1010.7 7.4
27/10:30pm 11.5 2.7 9.4 87 1.1 NW 46 59 25 32 1010.9 1011.0 7.4
27/10:26pm 11.5 2.3 9.4 87 1.1 NW 48 63 26 34 1010.9 1011.0 7.4
27/10:12pm 11.8 1.7 9.0 83 1.4 NW 52 65 28 35 1011.0 1011.1 7.4
27/10:00pm 11.7 2.0 8.9 83 1.4 NW 50 74 27 40 1011.0 1011.1 7.4
27/09:36pm 11.3 2.7 9.0 86 1.1 NW 44 65 24 35 1011.5 1011.6 7.2
27/09:30pm 11.3 3.1 9.6 89 0.9 WNW 43 57 23 31 1011.7 1011.8 7.2
27/09:12pm 11.2 2.9 9.3 88 1.0 NW 43 59 23 32 1011.9 1012.0 6.4
27/09:09pm 11.4 3.5 9.5 88 1.0 NW 41 57 22 31 1012.0 1012.1 5.8
27/09:00pm 11.0 3.2 9.9 93 0.6 WNW 41 52 22 28 1012.2 1012.3 5.8
27/08:54pm 10.7 2.5 9.8 94 0.5 WNW 43 56 23 30 1012.3 1012.4 5.8
27/08:43pm 10.7 2.5 9.6 93 0.6 WNW 43 52 23 28 1012.3 1012.4 5.4
27/08:30pm 11.0 3.2 9.8 92 0.6 WNW 41 56 22 30 1012.4 1012.5 3.6
27/08:20pm 11.1 2.3 9.5 90 0.8 WNW 46 57 25 31 1012.4 1012.5 3.4
27/08:00pm 11.1 1.9 9.5 90 0.8 NW 48 65 26 35 1012.5 1012.6 3.2
27/07:59pm 11.2 2.0 9.6 90 0.8 NW 48 65 26 35 1012.5 1012.6 3.2
27/07:45pm 11.1 1.1 9.4 89 0.9 NW 52 69 28 37 1012.2 1012.3 3.2
27/07:35pm 11.5 2.7 9.4 87 1.1 NW 46 65 25 35 1012.2 1012.3 3.0
27/07:30pm 11.4 3.6 9.7 89 0.9 NW 41 56 22 30 1012.2 1012.3 3.0
27/07:00pm 11.3 4.7 10.0 92 0.7 WNW 35 48 19 26 1012.6 1012.7 3.0
27/06:59pm 11.3 4.7 10.0 92 0.7 WNW 35 48 19 26 1012.6 1012.7 3.0
27/06:32pm 10.8 4.4 9.2 90 0.8 WNW 33 44 18 24 1012.6 1012.7 2.6
27/06:30pm 10.8 4.0 9.2 90 0.8 WNW 35 44 19 24 1012.5 1012.6 2.4
27/06:00pm 11.2 5.1 9.6 90 0.8 NW 32 41 17 22 1012.8 1012.9 2.4
27/05:30pm 11.3 4.4 9.0 86 1.1 NW 35 46 19 25 1012.8 1012.9 2.4
27/05:00pm 11.5 3.9 8.9 84 1.3 WNW 39 46 21 25 1012.4 1012.5 2.4
27/04:30pm 11.7 5.0 9.8 88 1.0 WNW 35 46 19 25 1012.6 1012.7 2.4
27/04:28pm 11.5 4.8 9.6 88 1.0 WNW 35 46 19 25 1012.6 1012.7 2.4
27/04:26pm 11.5 4.8 9.6 88 1.0 WNW 35 46 19 25 1012.7 1012.8 2.4
27/04:00pm 11.4 4.0 10.0 91 0.7 WNW 39 54 21 29 1012.6 1012.7 1.0
27/03:58pm 11.4 3.6 9.8 90 0.8 NW 41 54 22 29 1012.6 1012.7 0.6
27/03:55pm 11.6 3.8 9.9 89 0.9 NW 41 54 22 29 1012.6 1012.7 0.2
27/03:36pm 12.0 4.5 9.6 85 1.2 NW 39 57 21 31 1012.4 1012.5 0.0
27/03:30pm 11.9 3.5 9.5 85 1.2 NW 44 59 24 32 1012.3 1012.4 0.0
27/03:00pm 12.2 3.8 9.0 81 1.6 NW 43 54 23 29 1012.6 1012.7 0.0
27/02:30pm 12.6 4.1 8.7 77 1.9 NW 43 52 23 28 1012.7 1012.8 0.0
27/02:00pm 12.7 5.5 9.3 80 1.7 NW 37 46 20 25 1013.0 1013.1 0.0
27/01:30pm 12.3 3.9 8.8 79 1.7 NW 43 54 23 29 1013.1 1013.2 0.0
27/01:00pm 12.3 5.1 9.1 81 1.6 NW 37 46 20 25 1013.8 1013.9 0.0
27/12:30pm 12.9 6.2 9.5 80 1.7 NW 35 44 19 24 1014.1 1014.2 0.0
27/12:00pm 11.3 3.7 9.0 86 1.1 NW 39 50 21 27 1014.5 1014.6 0.0
27/11:30am 12.4 6.2 9.4 82 1.5 NW 32 43 17 23 1015.2 1015.3 0.0
27/11:00am 12.2 5.9 9.0 81 1.6 NW 32 39 17 21 1015.3 1015.4 0.0
27/10:34am 12.0 6.1 9.2 83 1.4 NW 30 43 16 23 1015.6 1015.7 0.0
27/10:30am 12.3 7.0 9.9 85 1.2 NW 28 39 15 21 1015.6 1015.7 0.0
27/10:15am 11.7 5.9 9.3 85 1.2 NW 30 39 16 21 1015.8 1015.9 0.0
27/10:00am 11.5 6.0 9.2 86 1.1 WNW 28 35 15 19 1016.0 1016.1 0.0
27/09:30am 11.2 6.3 8.6 84 1.3 NW 24 30 13 16 1016.2 1016.3 0.0
27/09:00am 10.8 4.7 8.2 84 1.3 WNW 30 35 16 19 1016.1 1016.2 0.0
27/08:30am 10.6 5.2 8.0 84 1.3 WNW 26 33 14 18 1016.2 1016.3 0.0
27/08:00am 10.1 5.8 8.0 87 1.0 WNW 20 26 11 14 1016.1 1016.2 0.0
27/07:30am 9.5 5.2 7.8 89 0.8 WNW 20 26 11 14 1016.1 1016.2 0.0
27/07:00am 9.0 4.2 7.5 90 0.7 WNW 22 28 12 15 1016.0 1016.1 0.0
27/06:30am 9.0 3.5 7.5 90 0.7 WNW 26 32 14 17 1016.0 1016.1 0.0
27/06:00am 9.1 3.6 7.5 90 0.8 WNW 26 35 14 19 1015.7 1015.8 0.0
27/05:30am 7.8 3.7 6.3 90 0.7 W 17 28 9 15 1015.8 1015.9 0.0
27/05:00am 7.7 4.4 6.3 91 0.6 W 13 20 7 11 1015.8 1015.9 0.0
27/04:30am 6.5 2.5 5.1 91 0.6 W 15 19 8 10 1015.9 1016.0 0.0
27/04:00am 6.9 3.4 5.4 90 0.7 WNW 13 15 7 8 1015.9 1016.0 0.0
27/03:30am 6.8 3.3 5.3 90 0.7 WNW 13 15 7 8 1015.7 1015.8 0.0
27/03:00am 8.2 4.9 6.5 89 0.8 W 13 19 7 10 1016.0 1016.1 0.0
27/02:30am 8.5 4.2 6.8 89 0.8 WNW 19 20 10 11 1015.9 1016.0 0.0
27/02:00am 7.5 3.3 5.8 89 0.8 W 17 20 9 11 1016.3 1016.4 0.0
27/01:30am 9.2 4.4 7.2 87 0.9 WNW 22 30 12 16 1016.4 1016.5 0.0
27/01:00am 9.6 4.4 7.4 86 1.0 WNW 24 32 13 17 1016.5 1016.6 0.0
27/12:30am 9.5 3.6 7.3 86 1.0 WNW 28 33 15 18 1016.6 1016.7 0.0
27/12:00am 9.5 4.3 7.3 86 1.0 WNW 24 32 13 17 1016.8 1016.9 0.0
 
Date/Time
EST
Temp
°C
App
Temp
°C
Dew
Point
°C
Rel
Hum
%
Delta-T
°C
Wind Press
QNH
hPa
Press
MSL
hPa
Rain since
9am
mm
Dir  Spd
km/h
Gust
km/h
Spd
kts
Gust
kts
26/11:30pm 9.6 4.0 7.0 84 1.2 WNW 26 32 14 17 1017.0 1017.1 0.0
26/11:00pm 9.5 3.9 7.1 85 1.1 WNW 26 32 14 17 1016.9 1017.0 0.0
26/10:30pm 9.6 2.8 6.9 83 1.3 WNW 32 39 17 21 1016.7 1016.8 0.0
26/10:00pm 9.6 3.1 6.7 82 1.4 WNW 30 35 16 19 1016.8 1016.9 0.0
26/09:30pm 9.7 3.2 6.6 81 1.4 WNW 30 37 16 20 1016.8 1016.9 0.0
26/09:00pm 9.6 3.8 6.3 80 1.5 WNW 26 33 14 18 1016.8 1016.9 0.0
26/08:30pm 9.8 2.8 5.8 76 1.8 WNW 32 39 17 21 1016.7 1016.8 0.0
26/08:00pm 10.3 3.3 6.1 75 1.9 WNW 32 37 17 20 1016.5 1016.6 0.0
26/07:30pm 10.2 4.7 5.8 74 2.0 WNW 24 32 13 17 1016.4 1016.5 0.0
26/07:00pm 10.3 4.6 5.1 70 2.4 WNW 24 30 13 16 1016.3 1016.4 0.0
26/06:30pm 10.0 6.0 4.8 70 2.3 W 15 24 8 13 1016.0 1016.1 0.0
26/06:00pm 10.6 5.7 4.9 68 2.6 W 20 28 11 15 1015.7 1015.8 0.0
26/05:30pm 11.1 5.8 4.8 65 2.9 W 22 28 12 15 1015.4 1015.5 0.0
26/05:00pm 12.0 5.9 5.0 62 3.2 W 26 35 14 19 1015.1 1015.2 0.0
26/04:30pm 12.5 6.7 7.8 73 2.3 WNW 28 33 15 18 1014.9 1015.0 0.0
26/04:00pm 12.3 5.1 7.8 74 2.2 WNW 35 46 19 25 1014.7 1014.8 0.0
26/03:30pm 12.8 5.5 7.3 69 2.7 WNW 35 44 19 24 1014.7 1014.8 0.0
26/03:00pm 13.9 8.3 5.3 56 4.0 W 24 33 13 18 1014.9 1015.0 0.0
26/02:30pm 13.2 7.9 6.8 65 3.1 WNW 24 30 13 16 1014.9 1015.0 0.0
26/02:00pm 13.6 7.9 6.5 62 3.4 WNW 26 39 14 21 1015.0 1015.1 0.0
26/01:30pm 13.1 7.6 7.5 69 2.7 WNW 26 33 14 18 1015.1 1015.2 0.0
26/01:00pm 12.2 7.3 6.9 70 2.5 WNW 22 28 12 15 1015.5 1015.6 0.0
26/12:30pm 11.4 4.9 6.5 72 2.3 NW 30 35 16 19 1016.0 1016.1 0.0
26/12:00pm 12.0 5.6 7.1 72 2.3 NW 30 37 16 20 1016.3 1016.4 0.0
26/11:30am 11.6 5.5 6.7 72 2.3 NW 28 37 15 20 1016.7 1016.8 0.0
26/11:00am 11.5 5.0 6.6 72 2.3 NW 30 37 16 20 1016.8 1016.9 0.0
26/10:30am 10.8 5.0 6.2 73 2.1 WNW 26 32 14 17 1016.9 1017.0 0.0
26/10:00am 10.3 3.9 5.3 71 2.3 WNW 28 33 15 18 1017.1 1017.2 0.0
26/09:30am 9.6 3.5 5.0 73 2.1 WNW 26 33 14 18 1017.1 1017.2 0.0
26/09:00am 9.2 2.5 5.4 77 1.7 WNW 30 35 16 19 1017.2 1017.3 0.0
26/08:30am 8.7 2.6 4.9 77 1.7 WNW 26 32 14 17 1017.1 1017.2 0.0
26/08:00am 6.4 2.6 4.1 85 1.0 WSW 13 17 7 9 1016.9 1017.0 0.0
26/07:30am 5.0 0.3 3.0 87 0.8 WSW 17 20 9 11 1016.7 1016.8 0.0
26/07:00am 3.9 0.2 2.1 88 0.7 WSW 11 15 6 8 1016.4 1016.5 0.0
26/06:30am 4.2 0.9 2.4 88 0.7 SSW 9 13 5 7 1015.9 1016.0 0.0
26/06:00am 4.7 1.0 2.2 84 1.0 WSW 11 15 6 8 1015.9 1016.0 0.0
26/05:30am 4.6 1.2 2.1 84 1.0 W 9 15 5 8 1015.8 1015.9 0.0
26/05:00am 3.9 0.5 1.6 85 0.9 W 9 11 5 6 1015.8 1015.9 0.0
26/04:30am 3.5 -0.1 0.6 81 1.1 SSW 9 13 5 7 1015.6 1015.7 0.0
26/04:00am 5.2 1.8 1.7 78 1.4 WSW 9 11 5 6 1015.5 1015.6 0.0
26/03:30am 4.6 1.1 1.5 80 1.2 WSW 9 11 5 6 1015.4 1015.5 0.0
26/03:00am 4.5 1.0 1.5 81 1.2 W 9 11 5 6 1015.4 1015.5 0.0
26/02:30am 3.3 0.3 0.5 82 1.1 SW 6 7 3 4 1015.5 1015.6 0.0
26/02:00am 3.3 -1.0 1.2 86 0.8 W 13 17 7 9 1015.8 1015.9 0.0
26/01:30am 4.1 -0.9 1.6 84 1.0 WSW 17 20 9 11 1015.8 1015.9 0.0
26/01:00am 3.6 -1.1 1.2 84 0.9 W 15 20 8 11 1015.8 1015.9 0.0
26/12:30am 4.8 -0.5 1.8 81 1.2 WSW 19 22 10 12 1015.9 1016.0 0.0
26/12:00am 5.6 2.3 2.3 79 1.3 WSW 9 13 5 7 1015.9 1016.0 0.0
 
Date/Time
EST
Temp
°C
App
Temp
°C
Dew
Point
°C
Rel
Hum
%
Delta-T
°C
Wind Press
QNH
hPa
Press
MSL
hPa
Rain since
9am
mm
Dir  Spd
km/h
Gust
km/h
Spd
kts
Gust
kts
25/11:30pm 4.8 0.6 1.5 79 1.3 W 13 15 7 8 1015.7 1015.8 0.0
25/11:00pm 5.7 1.4 1.2 73 1.8 WSW 13 19 7 10 1015.8 1015.9 0.0
25/10:30pm 5.9 3.0 1.4 73 1.8 W 6 9 3 5 1015.9 1016.0 0.0

Other Formats:

Comma delimited format used in spreadsheet applications
http://www.bom.gov.au/fwo/IDT60801/IDT60801.95960.axf

JavaScript Object Notation format (JSON) in row-major order
http://www.bom.gov.au/fwo/IDT60801/IDT60801.95960.json